Time;durP1;ratioP1;P1;durP2;ratioP2;P2;SDS_P1;SDS_P2;PMS_P1;PMS_P2;Temp;Humidity;BMP_temperature;BMP_pressure;BME280_temperature;BME280_humidity;BME280_pressure;Samples;Min_cycle;Max_cycle;Signal;HPM_P1;HPM_P2
2021/12/22 00:01:04;;;;;;;20.83;13.77;;;;;;;0.60;49.60;95281.53;5058763;28;20182;-71
2021/12/22 00:03:30;;;;;;;19.98;14.80;;;;;;;0.44;50.53;95281.91;5064533;28;20179;-71
2021/12/22 00:05:56;;;;;;;19.33;16.20;;;;;;;0.87;49.83;95281.16;5058326;28;20186;-71
2021/12/22 00:08:22;;;;;;;26.63;17.20;;;;;;;0.66;50.48;95287.97;5046836;28;20187;-71
2021/12/22 00:10:49;;;;;;;22.80;15.75;;;;;;;0.98;49.65;95283.72;5060296;28;20290;-71
2021/12/22 00:13:15;;;;;;;24.17;14.70;;;;;;;0.88;49.60;95282.81;5047659;28;20180;-71
2021/12/22 00:15:40;;;;;;;21.80;14.33;;;;;;;0.75;50.49;95276.97;5065571;28;20183;-71
2021/12/22 00:18:06;;;;;;;20.10;15.57;;;;;;;0.65;50.28;95278.63;5067398;28;20167;-71
2021/12/22 00:20:32;;;;;;;20.57;15.80;;;;;;;0.32;51.22;95281.06;5066979;28;20185;-71
2021/12/22 00:22:57;;;;;;;22.23;14.73;;;;;;;-0.02;52.49;95282.75;5066581;28;20307;-71
2021/12/22 00:25:25;;;;;;;23.27;12.77;;;;;;;-0.26;53.77;95277.69;5052910;28;20191;-71
2021/12/22 00:27:52;;;;;;;13.60;11.23;;;;;;;0.29;52.19;95280.50;5052869;28;20167;-71
2021/12/22 00:30:18;;;;;;;17.33;13.07;;;;;;;0.28;51.77;95278.84;5066018;28;20209;-71
2021/12/22 00:32:50;;;;;;;16.37;13.07;;;;;;;0.32;52.21;95278.50;5048903;28;20164;-73
2021/12/22 00:35:17;;;;;;;22.70;14.30;;;;;;;-0.63;54.96;95286.28;5059922;28;20236;-72
2021/12/22 00:37:42;;;;;;;19.33;11.85;;;;;;;-0.13;53.47;95285.28;5067198;28;20649;-71
2021/12/22 00:40:08;;;;;;;18.60;12.17;;;;;;;0.10;52.50;95294.72;5065318;28;20228;-71
2021/12/22 00:42:34;;;;;;;17.07;12.63;;;;;;;0.30;51.80;95297.56;5071894;28;20185;-72
2021/12/22 00:44:59;;;;;;;14.00;12.07;;;;;;;0.43;51.82;95292.31;5087158;28;20447;-71
2021/12/22 00:47:27;;;;;;;18.43;11.97;;;;;;;0.52;50.70;95300.16;5068782;28;20273;-72
2021/12/22 00:49:55;;;;;;;21.48;11.80;;;;;;;0.63;50.64;95301.91;5065744;28;20175;-71
2021/12/22 00:52:21;;;;;;;19.30;12.90;;;;;;;0.99;50.00;95305.19;5065966;28;20185;-72
2021/12/22 00:54:46;;;;;;;12.50;10.93;;;;;;;0.97;50.52;95305.28;5065996;28;20178;-71
2021/12/22 00:57:15;;;;;;;16.60;11.43;;;;;;;1.07;50.37;95300.25;5066588;28;20420;-71
2021/12/22 00:59:41;;;;;;;13.63;10.32;;;;;;;0.98;50.50;95304.34;5065105;28;20186;-71
2021/12/22 01:02:08;;;;;;;15.10;11.55;;;;;;;0.42;52.12;95304.38;5065957;28;20568;-70
2021/12/22 01:04:34;;;;;;;9.18;7.15;;;;;;;0.37;52.84;95298.75;5066861;28;20209;-71
2021/12/22 01:06:59;;;;;;;13.10;10.17;;;;;;;0.34;52.65;95301.53;5066898;28;20167;-71
2021/12/22 01:09:25;;;;;;;14.90;11.50;;;;;;;0.58;52.37;95301.44;5066054;28;20174;-71
2021/12/22 01:11:51;;;;;;;12.73;10.07;;;;;;;0.48;51.92;95293.59;5066545;28;20177;-71
2021/12/22 01:14:17;;;;;;;12.10;10.67;;;;;;;0.42;52.79;95288.91;5065096;28;20553;-72
2021/12/22 01:16:47;;;;;;;14.48;11.40;;;;;;;0.40;52.42;95293.38;5065282;28;20401;-71
2021/12/22 01:19:17;;;;;;;9.82;8.82;;;;;;;0.51;52.49;95290.81;5064516;28;20201;-71
2021/12/22 01:21:56;;;;;;;11.85;9.70;;;;;;;0.59;52.07;95292.78;5065115;28;20214;-71
2021/12/22 01:24:29;;;;;;;13.15;9.60;;;;;;;0.56;51.93;95290.44;5065078;28;20621;-72
2021/12/22 01:27:04;;;;;;;12.27;9.32;;;;;;;0.53;52.44;95283.78;5063845;28;20557;-72
2021/12/22 01:29:31;;;;;;;13.02;10.23;;;;;;;0.53;52.17;95283.78;5065302;28;20174;-72
2021/12/22 01:31:57;;;;;;;14.40;11.45;;;;;;;0.55;52.38;95284.47;5049080;28;20182;-72
2021/12/22 01:34:25;;;;;;;18.73;12.40;;;;;;;0.76;52.36;95278.63;5045353;28;20167;-71
2021/12/22 01:36:51;;;;;;;16.00;12.00;;;;;;;0.48;52.30;95275.56;5045606;28;20167;-72
2021/12/22 01:39:16;;;;;;;16.50;13.63;;;;;;;0.50;52.44;95283.19;5065329;28;20181;-72
2021/12/22 01:41:42;;;;;;;16.00;12.50;;;;;;;0.55;52.28;95279.34;5064123;28;20255;-72
2021/12/22 01:44:10;;;;;;;18.70;11.57;;;;;;;0.33;52.23;95274.16;5082140;28;20668;-72
2021/12/22 01:49:14;;;;;;;13.83;10.83;;;;;;;0.07;53.01;95270.97;5068118;28;20174;-71
2021/12/22 01:51:51;;;;;;;13.63;9.90;;;;;;;0.47;51.62;95270.53;5065762;28;20170;-71
2021/12/22 01:54:20;;;;;;;15.23;10.70;;;;;;;0.31;51.84;95273.47;5064969;28;20178;-71
2021/12/22 01:56:50;;;;;;;14.15;10.10;;;;;;;0.18;52.60;95271.00;5065104;28;20201;-72
2021/12/22 01:59:16;;;;;;;12.85;10.55;;;;;;;0.34;52.56;95257.78;5066438;28;20182;-72
2021/12/22 02:01:42;;;;;;;13.10;10.00;;;;;;;0.13;52.72;95266.19;5066832;28;20658;-72
2021/12/22 02:04:10;;;;;;;14.57;11.73;;;;;;;0.24;52.15;95262.00;5067129;28;20171;-71
2021/12/22 02:06:43;;;;;;;14.57;9.77;;;;;;;0.36;51.83;95261.03;5065720;28;20409;-72
2021/12/22 02:09:16;;;;;;;12.65;10.07;;;;;;;0.24;52.03;95267.13;5064326;28;20191;-71
2021/12/22 02:11:42;;;;;;;11.52;10.30;;;;;;;0.24;52.56;95267.13;5064480;28;20164;-72
2021/12/22 02:14:08;;;;;;;15.53;10.23;;;;;;;-0.16;53.04;95267.53;5066618;28;20171;-72
2021/12/22 02:16:37;;;;;;;10.83;9.23;;;;;;;0.08;52.76;95263.16;5064863;28;20167;-72
2021/12/22 02:19:06;;;;;;;13.32;11.63;;;;;;;0.21;52.50;95257.91;5065751;28;20186;-72
2021/12/22 02:21:37;;;;;;;17.27;12.00;;;;;;;0.05;52.60;95253.06;5064105;28;20324;-72
2021/12/22 02:24:02;;;;;;;12.45;10.40;;;;;;;-0.02;52.79;95262.16;5064443;28;20177;-71
2021/12/22 02:26:37;;;;;;;12.53;10.00;;;;;;;-0.10;52.84;95254.22;5063288;28;20198;-71
2021/12/22 02:29:07;;;;;;;15.40;10.85;;;;;;;-0.13;53.18;95259.56;5064384;28;20178;-71
2021/12/22 02:31:40;;;;;;;15.45;10.23;;;;;;;0.24;51.79;95256.84;5064413;28;20213;-72
2021/12/22 02:34:06;;;;;;;13.52;9.90;;;;;;;0.48;51.26;95249.84;5063263;28;20182;-71
2021/12/22 02:36:38;;;;;;;12.60;10.77;;;;;;;0.18;52.10;95248.63;5064566;28;20249;-72
2021/12/22 02:39:04;;;;;;;20.90;10.90;;;;;;;-0.27;52.91;95245.16;5063158;28;20335;-71
2021/12/22 02:41:31;;;;;;;11.02;9.30;;;;;;;-0.06;52.98;95241.03;5063069;28;20209;-71
2021/12/22 02:43:59;;;;;;;15.30;10.93;;;;;;;-0.35;53.57;95242.34;5045101;28;20246;-71
2021/12/22 02:46:29;;;;;;;15.73;10.30;;;;;;;-0.05;52.53;95240.06;5043135;28;20187;-72
2021/12/22 02:48:55;;;;;;;12.43;9.77;;;;;;;0.01;52.48;95243.94;5044492;28;20171;-72
2021/12/22 02:51:22;;;;;;;12.37;11.07;;;;;;;-0.23;52.98;95239.72;5043096;28;20212;-72
2021/12/22 03:01:38;;;;;;;10.65;9.55;;;;;;;0.15;52.67;95248.06;5044327;28;20230;-71
2021/12/22 03:04:11;;;;;;;12.23;10.38;;;;;;;0.12;52.57;95243.16;5049712;28;20175;-72
2021/12/22 03:09:19;;;;;;;19.88;13.75;;;;;;;0.20;52.96;95245.97;5057732;28;20187;-72
2021/12/22 03:11:45;;;;;;;21.08;12.82;;;;;;;0.35;52.42;95243.97;5044247;28;20156;-72
2021/12/22 03:14:17;;;;;;;15.77;11.27;;;;;;;0.27;52.39;95241.19;5043832;28;20222;-72
2021/12/22 03:16:43;;;;;;;18.83;14.30;;;;;;;0.07;52.86;95240.91;5042695;28;20163;-72
2021/12/22 03:19:14;;;;;;;18.88;15.10;;;;;;;0.45;52.20;95232.03;5044199;28;20418;-72
2021/12/22 03:21:41;;;;;;;19.50;15.82;;;;;;;0.25;52.37;95241.28;5043877;28;20218;-72
2021/12/22 03:24:07;;;;;;;21.42;14.57;;;;;;;0.43;52.39;95241.63;5045060;28;20217;-72
2021/12/22 03:26:33;;;;;;;21.33;15.77;;;;;;;0.27;52.13;95246.31;5058874;28;20603;-72
2021/12/22 03:28:58;;;;;;;20.80;18.20;;;;;;;0.06;52.78;95249.56;5066281;28;20175;-72
2021/12/22 03:31:26;;;;;;;22.67;16.23;;;;;;;0.13;53.59;95249.91;5062539;28;20235;-72
2021/12/22 03:33:52;;;;;;;24.40;18.48;;;;;;;0.26;52.83;95252.41;5060962;28;20186;-72
2021/12/22 03:36:18;;;;;;;18.40;15.10;;;;;;;0.26;52.76;95249.81;5065912;28;20166;-71
2021/12/22 03:38:44;;;;;;;18.87;14.70;;;;;;;0.09;53.33;95246.75;5065847;28;20277;-72
2021/12/22 03:41:09;;;;;;;19.03;11.20;;;;;;;0.11;52.87;95244.88;5067133;28;20159;-72
2021/12/22 03:43:36;;;;;;;16.53;11.73;;;;;;;-0.77;54.98;95242.78;5067401;28;20409;-71
2021/12/22 03:46:03;;;;;;;17.98;12.82;;;;;;;-0.36;54.44;95238.13;5065738;28;20175;-72
2021/12/22 03:48:28;;;;;;;19.30;13.90;;;;;;;-0.62;54.92;95249.38;5066967;28;20171;-71
2021/12/22 03:50:55;;;;;;;19.67;10.50;;;;;;;-0.56;54.16;95250.69;5067108;28;20217;-71
2021/12/22 03:53:20;;;;;;;16.98;12.57;;;;;;;-0.72;55.67;95251.00;5065594;28;20170;-71
2021/12/22 03:55:46;;;;;;;19.80;15.57;;;;;;;-1.07;56.61;95254.28;5067237;28;20173;-71
2021/12/22 03:58:13;;;;;;;18.17;14.87;;;;;;;-0.57;54.85;95256.75;5066920;28;20413;-71
2021/12/22 04:00:41;;;;;;;18.05;14.65;;;;;;;-0.66;55.13;95260.81;5065745;28;20232;-72
2021/12/22 04:03:15;;;;;;;23.52;13.15;;;;;;;-0.45;54.98;95253.31;5065547;28;20222;-71
2021/12/22 04:05:41;;;;;;;25.77;14.90;;;;;;;-0.64;54.89;95261.53;5067056;28;20187;-72
2021/12/22 04:08:06;;;;;;;25.90;17.23;;;;;;;-0.25;54.61;95259.56;5055381;28;20174;-72
2021/12/22 04:10:32;;;;;;;20.57;16.57;;;;;;;-0.68;54.89;95264.44;5050882;28;20186;-71
2021/12/22 04:12:57;;;;;;;24.10;15.40;;;;;;;-0.57;55.65;95261.88;5066695;28;20170;-72
2021/12/22 04:15:26;;;;;;;30.00;19.97;;;;;;;-0.47;55.08;95256.94;5065540;28;20246;-72
2021/12/22 04:17:52;;;;;;;35.47;19.73;;;;;;;-0.44;54.71;95262.66;5066494;28;20194;-72
2021/12/22 04:20:17;;;;;;;32.83;21.37;;;;;;;-0.60;55.09;95262.13;5066805;28;20645;-71
2021/12/22 04:22:43;;;;;;;29.87;20.87;;;;;;;-0.77;56.02;95268.47;5058069;28;20250;-72
2021/12/22 04:25:09;;;;;;;26.73;21.10;;;;;;;-0.79;55.73;95258.31;5046695;28;20175;-72
2021/12/22 04:27:36;;;;;;;30.52;19.17;;;;;;;-0.51;55.73;95265.78;5046580;28;20167;-72
2021/12/22 04:30:05;;;;;;;25.80;18.77;;;;;;;-0.77;56.12;95276.19;5045045;28;20507;-71
2021/12/22 04:32:30;;;;;;;23.10;17.58;;;;;;;-0.43;55.03;95269.44;5065231;28;20169;-71
2021/12/22 04:34:56;;;;;;;19.93;11.87;;;;;;;-0.35;53.88;95268.88;5065945;28;20194;-70
2021/12/22 04:37:21;;;;;;;26.70;11.90;;;;;;;-0.20;53.50;95269.50;5053201;28;20198;-71
2021/12/22 04:39:47;;;;;;;13.90;7.83;;;;;;;-0.86;55.33;95274.25;5046619;28;20235;-71
2021/12/22 04:42:14;;;;;;;21.33;14.73;;;;;;;-1.08;56.15;95277.50;5046331;28;20202;-71
2021/12/22 04:44:40;;;;;;;19.58;15.10;;;;;;;-0.98;55.99;95273.38;5046394;28;20167;-71
2021/12/22 04:47:06;;;;;;;20.90;15.10;;;;;;;-0.68;55.06;95274.72;5044633;28;20299;-72
2021/12/22 04:49:31;;;;;;;25.77;15.73;;;;;;;-0.87;55.31;95276.03;5046393;28;20168;-72
2021/12/22 04:51:58;;;;;;;22.93;15.03;;;;;;;-0.78;55.70;95284.81;5046028;28;20167;-72
2021/12/22 04:56:53;;;;;;;20.52;14.82;;;;;;;-0.62;54.87;95279.41;5049405;28;20171;-72
2021/12/22 04:59:19;;;;;;;25.23;15.57;;;;;;;-0.49;55.07;95285.31;5053696;28;20189;-73
2021/12/22 05:01:45;;;;;;;19.73;14.80;;;;;;;-0.39;53.83;95285.47;5064218;28;20220;-72
2021/12/22 05:04:11;;;;;;;23.17;16.83;;;;;;;-0.52;54.62;95284.72;5057523;28;20195;-73
2021/12/22 05:06:37;;;;;;;28.13;16.87;;;;;;;-0.73;55.08;95290.44;5047426;28;20410;-73
2021/12/22 05:09:04;;;;;;;22.20;16.70;;;;;;;-0.61;54.96;95281.88;5063902;28;20217;-72
2021/12/22 05:11:29;;;;;;;26.75;16.55;;;;;;;-0.94;55.17;95287.66;5063737;28;20167;-71
2021/12/22 05:13:55;;;;;;;23.47;15.97;;;;;;;-0.91;55.72;95289.16;5064880;28;20179;-72
2021/12/22 05:16:20;;;;;;;24.87;16.03;;;;;;;-0.89;55.46;95290.72;5064764;28;20181;-73
2021/12/22 05:21:13;;;;;;;23.55;15.68;;;;;;;-0.58;54.62;95298.81;5065014;28;20218;-72
2021/12/22 05:23:38;;;;;;;20.87;16.33;;;;;;;-0.37;53.96;95301.59;5063507;28;20182;-73
2021/12/22 05:26:03;;;;;;;20.67;13.87;;;;;;;-0.32;53.67;95306.38;5064810;28;20193;-72
2021/12/22 05:28:29;;;;;;;19.50;12.63;;;;;;;-0.41;54.04;95302.75;5060183;28;20167;-73
2021/12/22 05:30:54;;;;;;;16.20;11.53;;;;;;;-0.44;53.88;95308.09;5045014;28;20168;-72
2021/12/22 05:33:20;;;;;;;19.30;11.53;;;;;;;-0.55;53.41;95308.03;5048195;28;20705;-73
2021/12/22 05:35:45;;;;;;;16.43;11.43;;;;;;;-0.69;53.87;95309.84;5064871;28;20235;-72
2021/12/22 05:38:11;;;;;;;22.43;13.23;;;;;;;-0.33;53.85;95310.72;5063456;28;20245;-73
2021/12/22 05:40:37;;;;;;;18.23;14.05;;;;;;;-0.47;53.53;95301.44;5056417;28;20175;-72
2021/12/22 05:43:03;;;;;;;20.13;15.87;;;;;;;-0.65;54.35;95313.03;5058022;28;20189;-72
2021/12/22 05:45:28;;;;;;;26.20;14.30;;;;;;;-0.41;54.00;95313.84;5063524;28;20197;-72
2021/12/22 05:47:54;;;;;;;24.50;13.07;;;;;;;-0.30;54.14;95307.13;5063584;28;20185;-72
2021/12/22 05:50:21;;;;;;;17.87;13.80;;;;;;;-0.61;54.96;95297.31;5063241;28;20376;-72
2021/12/22 05:52:46;;;;;;;20.25;15.60;;;;;;;-0.58;54.31;95298.81;5063332;28;20193;-72
2021/12/22 05:55:12;;;;;;;23.93;14.27;;;;;;;-0.57;54.73;95303.00;5063201;28;20553;-72
2021/12/22 05:57:37;;;;;;;18.07;12.93;;;;;;;-0.67;54.92;95312.31;5064642;28;20222;-73
2021/12/22 06:00:05;;;;;;;22.40;14.93;;;;;;;-0.53;54.81;95309.59;5051501;28;20659;-72
2021/12/22 06:02:30;;;;;;;17.45;11.55;;;;;;;-0.57;54.50;95310.72;5044361;28;20205;-72
2021/12/22 06:04:56;;;;;;;20.57;13.10;;;;;;;-0.40;54.39;95317.22;5053682;28;20698;-72
2021/12/22 06:07:21;;;;;;;17.63;13.03;;;;;;;-0.50;54.14;95318.84;5064601;28;20170;-72
2021/12/22 06:09:47;;;;;;;20.57;13.47;;;;;;;-0.30;53.52;95315.66;5064392;28;20214;-72
2021/12/22 06:12:12;;;;;;;16.97;13.30;;;;;;;-0.34;53.51;95311.66;5063118;28;20217;-72
2021/12/22 06:14:38;;;;;;;18.50;12.20;;;;;;;-0.31;53.45;95319.13;5056047;28;20179;-72
2021/12/22 06:17:03;;;;;;;15.50;11.10;;;;;;;-0.17;53.48;95325.88;5058189;28;20179;-72
2021/12/22 06:19:29;;;;;;;20.17;15.73;;;;;;;-0.23;53.44;95327.13;5062921;28;20178;-72
2021/12/22 06:21:54;;;;;;;24.43;16.70;;;;;;;-0.19;53.65;95332.84;5064030;28;20681;-72
2021/12/22 06:24:20;;;;;;;29.27;18.37;;;;;;;-0.24;53.59;95335.78;5062990;28;20202;-72
2021/12/22 06:26:45;;;;;;;22.93;18.10;;;;;;;-0.48;54.52;95350.38;5064376;28;20174;-72
2021/12/22 06:29:11;;;;;;;32.60;18.63;;;;;;;-0.37;54.17;95335.00;5044498;28;20221;-72
2021/12/22 06:31:36;;;;;;;24.17;17.63;;;;;;;-0.35;54.50;95340.88;5055279;28;20177;-72
2021/12/22 06:34:03;;;;;;;28.10;20.37;;;;;;;-0.20;53.59;95338.94;5063012;28;20182;-71
2021/12/22 06:36:28;;;;;;;26.42;19.70;;;;;;;-0.21;53.98;95345.00;5062906;28;20239;-72
2021/12/22 06:38:54;;;;;;;27.93;19.53;;;;;;;-0.46;54.29;95341.63;5064378;28;20174;-72
2021/12/22 06:41:19;;;;;;;29.53;21.60;;;;;;;-0.48;54.62;95352.97;5062901;28;20205;-72
2021/12/22 06:43:45;;;;;;;31.63;22.80;;;;;;;-0.88;55.51;95348.06;5063990;28;20223;-72
2021/12/22 06:46:11;;;;;;;29.50;20.97;;;;;;;-0.68;55.41;95344.91;5063243;28;20232;-72
2021/12/22 06:48:36;;;;;;;29.37;20.67;;;;;;;-0.42;54.30;95339.66;5064195;28;20178;-72
2021/12/22 06:51:02;;;;;;;30.07;22.77;;;;;;;-0.38;54.34;95338.50;5061973;28;20186;-71
2021/12/22 06:53:27;;;;;;;26.27;19.70;;;;;;;-0.14;53.93;95345.41;5050060;28;20233;-72
2021/12/22 06:55:53;;;;;;;26.53;19.07;;;;;;;-0.03;53.63;95348.00;5061844;28;20205;-72
2021/12/22 06:58:18;;;;;;;37.37;21.27;;;;;;;-0.25;54.74;95353.88;5064031;28;20162;-72
2021/12/22 07:00:45;;;;;;;32.30;21.97;;;;;;;0.07;53.83;95351.53;5068143;28;20943;-72
2021/12/22 07:03:10;;;;;;;33.88;22.73;;;;;;;0.23;53.04;95348.69;5067571;28;20193;-72
2021/12/22 07:05:36;;;;;;;30.30;21.60;;;;;;;0.21;53.34;95357.41;5067639;28;20171;-71
2021/12/22 07:08:01;;;;;;;36.57;24.43;;;;;;;0.34;52.61;95346.13;5066012;28;20174;-72
2021/12/22 07:10:27;;;;;;;39.00;26.80;;;;;;;0.25;52.51;95356.25;5067945;28;20185;-72
2021/12/22 07:12:52;;;;;;;36.13;24.00;;;;;;;0.08;52.36;95360.91;5067949;28;20169;-72
2021/12/22 07:15:19;;;;;;;32.77;22.97;;;;;;;-0.20;53.03;95352.63;5067951;28;20183;-72
2021/12/22 07:17:48;;;;;;;28.05;20.52;;;;;;;0.22;52.57;95353.94;5067872;28;20238;-72
2021/12/22 07:20:14;;;;;;;24.83;17.25;;;;;;;0.31;52.16;95353.25;5067493;28;20209;-72
2021/12/22 07:22:39;;;;;;;25.47;19.37;;;;;;;0.19;52.39;95347.28;5061806;28;20226;-72
2021/12/22 07:25:06;;;;;;;31.20;22.30;;;;;;;0.32;52.19;95342.00;5067318;28;20202;-72
2021/12/22 07:27:34;;;;;;;24.92;20.10;;;;;;;0.01;52.54;95348.59;5067141;28;20209;-71
2021/12/22 07:29:59;;;;;;;32.00;21.00;;;;;;;0.55;51.71;95348.00;5066377;28;20202;-71
2021/12/22 07:32:25;;;;;;;30.07;20.83;;;;;;;0.66;51.16;95349.78;5068632;28;20405;-72
2021/12/22 07:35:04;;;;;;;28.53;20.00;;;;;;;0.72;50.81;95346.75;5067813;28;20671;-72
2021/12/22 07:37:43;;;;;;;32.85;19.83;;;;;;;0.59;51.47;95349.44;5056409;28;20203;-72
2021/12/22 07:40:12;;;;;;;33.47;22.10;;;;;;;0.96;50.85;95346.63;5066719;28;20637;-72
2021/12/22 07:42:38;;;;;;;29.42;19.38;;;;;;;1.34;49.49;95341.06;5065928;28;20659;-72
2021/12/22 07:45:08;;;;;;;31.20;21.50;;;;;;;1.31;49.32;95331.03;5055755;28;20267;-72
2021/12/22 07:47:33;;;;;;;31.55;21.90;;;;;;;0.26;53.34;95333.00;5061923;28;20421;-73
2021/12/22 07:49:59;;;;;;;29.20;21.53;;;;;;;1.13;50.54;95333.25;5065756;28;20179;-72
2021/12/22 07:52:27;;;;;;;30.57;22.67;;;;;;;1.01;50.89;95338.56;5059633;28;20186;-72
2021/12/22 07:54:55;;;;;;;32.13;22.52;;;;;;;1.20;50.36;95336.19;5073919;28;20220;-72
2021/12/22 07:57:21;;;;;;;30.75;23.30;;;;;;;1.52;49.83;95330.28;5073121;28;20260;-72
2021/12/22 07:59:47;;;;;;;35.33;24.80;;;;;;;1.55;49.65;95332.59;5066970;28;20179;-72
2021/12/22 08:02:12;;;;;;;31.27;23.30;;;;;;;1.91;48.66;95336.56;5066685;28;20931;-72
2021/12/22 08:04:41;;;;;;;30.13;22.30;;;;;;;1.61;49.47;95345.00;5064314;28;20665;-71
2021/12/22 08:07:07;;;;;;;25.98;19.48;;;;;;;2.07;48.28;95348.25;5064974;28;20190;-71
2021/12/22 08:09:33;;;;;;;31.37;19.30;;;;;;;1.61;48.65;95347.56;5057310;28;20245;-72
2021/12/22 08:12:04;;;;;;;26.10;18.83;;;;;;;1.63;48.93;95352.63;5057560;28;20174;-71
2021/12/22 08:14:38;;;;;;;23.08;19.13;;;;;;;2.26;47.77;95357.91;5066758;28;20170;-71
2021/12/22 08:17:04;;;;;;;29.45;19.02;;;;;;;2.59;47.31;95356.88;5058503;28;20183;-71
2021/12/22 08:19:29;;;;;;;24.27;17.63;;;;;;;2.65;46.69;95355.53;5065123;28;20175;-71
2021/12/22 08:21:55;;;;;;;21.30;15.90;;;;;;;2.36;46.62;95358.78;5066200;28;20237;-71
2021/12/22 08:24:22;;;;;;;20.40;15.18;;;;;;;2.54;46.33;95356.41;5055802;28;20191;-70
2021/12/22 08:26:47;;;;;;;25.98;15.98;;;;;;;2.53;45.97;95359.97;5055570;28;20191;-71
2021/12/22 08:29:13;;;;;;;20.63;16.20;;;;;;;2.67;46.20;95356.22;5052874;28;20172;-70
2021/12/22 08:31:38;;;;;;;23.07;15.40;;;;;;;2.93;45.23;95359.22;5054918;28;20183;-72
2021/12/22 08:34:05;;;;;;;31.23;16.70;;;;;;;2.31;46.73;95361.72;5058907;28;20170;-71
2021/12/22 08:39:15;;;;;;;24.92;16.25;;;;;;;2.19;46.72;95359.34;5056265;28;20197;-71
2021/12/22 08:41:41;;;;;;;24.10;17.53;;;;;;;2.37;46.25;95360.38;5053014;28;20231;-72
2021/12/22 08:44:09;;;;;;;26.17;17.77;;;;;;;2.99;45.33;95368.22;5062107;28;20178;-71
2021/12/22 08:46:39;;;;;;;20.37;17.13;;;;;;;3.15;44.63;95368.56;5065495;28;20524;-72
2021/12/22 08:49:06;;;;;;;24.47;16.60;;;;;;;3.19;44.09;95364.78;5060330;28;20433;-73
2021/12/22 08:51:33;;;;;;;34.93;21.13;;;;;;;3.12;44.35;95363.66;5065809;28;20766;-73
2021/12/22 08:54:00;;;;;;;29.00;21.50;;;;;;;3.04;45.08;95369.47;5064803;28;20761;-72
2021/12/22 08:56:26;;;;;;;29.10;21.03;;;;;;;2.99;44.76;95370.81;5065973;28;20483;-73
2021/12/22 08:58:54;;;;;;;25.40;20.50;;;;;;;2.99;44.41;95366.44;5062159;28;20970;-73
2021/12/22 09:01:20;;;;;;;34.47;20.27;;;;;;;3.26;44.28;95365.88;5057630;28;20189;-73
2021/12/22 09:03:46;;;;;;;37.50;21.63;;;;;;;3.17;44.69;95363.25;5063906;28;20265;-73
2021/12/22 09:06:12;;;;;;;35.23;22.90;;;;;;;2.51;45.71;95362.66;5050322;28;20455;-73
2021/12/22 09:08:38;;;;;;;32.27;21.83;;;;;;;2.90;44.54;95362.03;5058299;28;20249;-76
2021/12/22 09:11:03;;;;;;;23.47;20.20;;;;;;;3.17;44.92;95371.00;5064621;28;20432;-73
2021/12/22 09:13:29;;;;;;;34.50;23.67;;;;;;;2.02;46.91;95371.03;5056712;28;20209;-74
2021/12/22 09:15:54;;;;;;;30.40;22.93;;;;;;;2.10;47.23;95363.47;5065627;28;20190;-74
2021/12/22 09:18:20;;;;;;;37.93;22.40;;;;;;;2.07;46.99;95369.72;5063870;28;20178;-73
2021/12/22 09:20:46;;;;;;;26.53;20.37;;;;;;;3.05;44.94;95373.69;5064053;28;20174;-73
2021/12/22 09:23:12;;;;;;;31.80;23.00;;;;;;;2.58;45.81;95367.31;5064479;28;20191;-74
2021/12/22 09:25:38;;;;;;;31.90;21.73;;;;;;;1.97;46.38;95362.81;5065475;28;20242;-73
2021/12/22 09:28:05;;;;;;;28.90;20.40;;;;;;;2.45;46.29;95363.19;5051006;28;20429;-72
2021/12/22 09:30:35;;;;;;;28.48;21.75;;;;;;;2.85;45.51;95359.88;5045311;28;20615;-74
2021/12/22 09:33:07;;;;;;;32.22;22.27;;;;;;;3.35;44.29;95353.91;5063884;28;20178;-74
2021/12/22 09:35:33;;;;;;;31.77;20.63;;;;;;;2.76;45.27;95357.22;5066313;28;20257;-74
2021/12/22 09:37:59;;;;;;;29.90;23.30;;;;;;;1.92;47.07;95351.13;5065032;28;20413;-74
2021/12/22 09:40:24;;;;;;;28.90;21.03;;;;;;;3.46;45.32;95343.47;5065682;28;20261;-74
2021/12/22 09:42:50;;;;;;;34.93;24.10;;;;;;;2.98;44.38;95349.31;5064129;28;20248;-73
2021/12/22 09:45:17;;;;;;;32.50;22.10;;;;;;;3.38;44.43;95342.47;5056019;28;20191;-73
2021/12/22 09:48:01;;;;;;;28.60;19.47;;;;;;;3.85;43.90;95340.09;5061798;28;20177;-74
2021/12/22 09:50:45;;;;;;;30.23;20.67;;;;;;;3.60;43.01;95338.84;5065336;28;20492;-74
2021/12/22 09:53:11;;;;;;;34.97;20.27;;;;;;;3.71;43.08;95336.94;5053623;28;20401;-73
2021/12/22 09:55:36;;;;;;;31.37;20.60;;;;;;;3.44;43.85;95335.00;5066595;28;20428;-73
2021/12/22 09:58:05;;;;;;;26.03;18.90;;;;;;;3.24;43.35;95331.56;5063612;28;20410;-73
2021/12/22 10:00:35;;;;;;;31.27;22.27;;;;;;;3.28;43.89;95330.38;5063833;28;20191;-75
2021/12/22 10:03:02;;;;;;;26.63;21.53;;;;;;;4.02;42.97;95326.50;5063382;28;20434;-75
2021/12/22 10:05:27;;;;;;;35.50;22.10;;;;;;;4.95;41.08;95318.09;5062958;28;20460;-75
2021/12/22 10:08:06;;;;;;;26.87;21.03;;;;;;;4.82;41.38;95316.66;5065479;28;20417;-81
2021/12/22 10:10:33;;;;;;;31.73;20.87;;;;;;;5.63;39.75;95313.38;5065653;28;20204;-74
2021/12/22 10:13:10;;;;;;;28.67;19.83;;;;;;;6.25;38.24;95307.44;5064946;28;20408;-75
2021/12/22 10:15:36;;;;;;;32.70;19.67;;;;;;;5.13;39.40;95303.41;5065199;28;20417;-77
2021/12/22 10:18:19;;;;;;;29.97;20.77;;;;;;;5.94;38.34;95305.22;5064760;28;20439;-76
2021/12/22 10:20:48;;;;;;;34.73;22.20;;;;;;;5.89;38.55;95304.84;5044152;28;20445;-76
2021/12/22 10:23:26;;;;;;;29.50;20.40;;;;;;;6.19;38.03;95308.06;5063474;28;20512;-76
2021/12/22 10:25:58;;;;;;;29.23;21.33;;;;;;;6.23;37.97;95312.78;5063547;28;20940;-76
2021/12/22 10:28:25;;;;;;;30.77;22.53;;;;;;;6.37;37.21;95308.00;5064894;28;20508;-75
2021/12/22 10:30:55;;;;;;;34.73;24.23;;;;;;;6.29;36.96;95300.97;5064693;28;20862;-76
2021/12/22 10:33:29;;;;;;;25.40;20.43;;;;;;;6.03;37.62;95303.53;5066483;28;20423;-77
2021/12/22 10:35:56;;;;;;;32.53;25.10;;;;;;;6.43;37.09;95307.41;5063548;28;20452;-75
2021/12/22 10:38:24;;;;;;;30.87;22.70;;;;;;;5.31;38.95;95305.22;5066761;28;20424;-75
2021/12/22 10:40:53;;;;;;;28.87;23.40;;;;;;;4.81;40.25;95309.81;5069144;28;20460;-75
2021/12/22 10:43:29;;;;;;;27.67;23.80;;;;;;;5.30;39.09;95303.63;5069293;28;20491;-75
2021/12/22 10:46:04;;;;;;;30.33;23.30;;;;;;;5.38;38.99;95307.09;5069633;28;20507;-75
2021/12/22 10:49:32;;;;;;;27.70;22.63;;;;;;;5.74;38.29;95296.75;5069665;28;20416;-76
2021/12/22 10:51:27;;;;;;;42.20;26.17;;;;;;;4.77;40.16;95302.47;5068109;28;20434;-75
2021/12/22 10:53:53;;;;;;;35.87;23.30;;;;;;;3.93;41.66;95293.66;5068944;28;20433;-75
2021/12/22 10:56:40;;;;;;;35.43;25.03;;;;;;;5.22;39.83;95287.00;5068715;28;20170;-74
2021/12/22 10:59:09;;;;;;;49.50;27.10;;;;;;;4.85;40.29;95282.66;5067387;28;20425;-76
2021/12/22 11:01:38;;;;;;;34.73;26.67;;;;;;;4.61;40.73;95283.16;5066897;28;20461;-75
2021/12/22 11:04:14;;;;;;;32.37;26.60;;;;;;;5.13;39.53;95281.84;5066764;28;20432;-74
2021/12/22 11:06:40;;;;;;;34.33;24.53;;;;;;;5.04;39.37;95279.16;5067211;28;20535;-75
2021/12/22 11:09:10;;;;;;;34.90;23.90;;;;;;;5.14;39.41;95273.09;5067252;28;20436;-77
2021/12/22 11:11:45;;;;;;;33.43;25.63;;;;;;;5.32;39.77;95279.13;5068021;28;20185;-76
2021/12/22 11:14:22;;;;;;;36.77;26.30;;;;;;;4.77;40.47;95277.38;5066983;28;20507;-84
2021/12/22 11:17:04;;;;;;;40.37;25.20;;;;;;;4.32;41.34;95272.06;5069021;28;20401;-77
2021/12/22 11:19:36;;;;;;;32.57;25.70;;;;;;;4.79;40.81;95264.28;5068054;28;20432;-76
2021/12/22 11:22:15;;;;;;;35.23;25.50;;;;;;;5.00;40.39;95261.44;5067701;28;20579;-74
2021/12/22 11:24:50;;;;;;;37.57;26.17;;;;;;;5.17;39.84;95262.44;5068001;28;20419;-76
2021/12/22 11:27:19;;;;;;;34.30;25.20;;;;;;;5.58;39.09;95261.06;5048753;28;20425;-76
2021/12/22 11:29:48;;;;;;;30.33;23.93;;;;;;;6.16;38.44;95261.56;5064306;28;20440;-76
2021/12/22 11:32:15;;;;;;;34.40;22.43;;;;;;;6.16;38.56;95258.97;5066598;28;20405;-76
2021/12/22 11:34:46;;;;;;;41.43;26.70;;;;;;;6.47;37.92;95258.53;5067901;28;20426;-77
2021/12/22 11:37:12;;;;;;;45.70;28.00;;;;;;;6.48;37.84;95258.38;5066242;28;20765;-74
2021/12/22 11:39:38;;;;;;;32.40;25.23;;;;;;;6.45;37.93;95253.50;5067448;28;20425;-75
2021/12/22 11:42:07;;;;;;;37.60;25.23;;;;;;;5.24;39.86;95255.72;5067025;28;20554;-76
2021/12/22 11:44:34;;;;;;;32.67;24.53;;;;;;;5.26;39.90;95257.19;5045622;28;20183;-74